createdAt,value
2018-08-13T00:00:22.789Z,71.0
2018-08-13T00:01:24.188Z,70.8
2018-08-13T00:02:25.602Z,71.0
2018-08-13T00:03:27.007Z,71.5
2018-08-13T00:04:28.482Z,71.4
2018-08-13T00:05:29.885Z,70.6
2018-08-13T00:06:31.377Z,70.5
2018-08-13T00:07:32.778Z,71.1
2018-08-13T00:08:34.177Z,70.7
2018-08-13T00:09:35.684Z,71.1
2018-08-13T00:10:37.084Z,70.9
2018-08-13T00:11:38.487Z,71.5
2018-08-13T00:12:39.901Z,71.3
2018-08-13T00:13:41.305Z,71.5
2018-08-13T00:14:42.785Z,71.3
2018-08-13T00:15:44.184Z,71.3
2018-08-13T00:16:45.666Z,71.6
2018-08-13T00:17:47.071Z,71.7
2018-08-13T00:18:48.543Z,72.0
2018-08-13T00:19:49.950Z,72.0
2018-08-13T00:20:51.427Z,71.7
2018-08-13T00:21:52.829Z,71.8
2018-08-13T00:22:54.228Z,71.6
2018-08-13T00:23:55.647Z,71.1
2018-08-13T00:24:57.047Z,71.6
2018-08-13T00:25:58.450Z,72.0
2018-08-13T00:26:59.968Z,72.1
2018-08-13T00:28:01.373Z,72.2
2018-08-13T00:29:02.853Z,72.0
2018-08-13T00:30:04.249Z,71.8
2018-08-13T00:31:05.729Z,71.9
2018-08-13T00:32:07.135Z,71.6
2018-08-13T00:33:08.533Z,71.6
2018-08-13T00:34:10.054Z,71.4
2018-08-13T00:35:11.470Z,71.2
2018-08-13T00:36:12.873Z,72.1
2018-08-13T00:37:14.373Z,72.2
2018-08-13T00:38:15.774Z,72.4
2018-08-13T00:39:17.254Z,72.0
2018-08-13T00:40:18.655Z,71.5
2018-08-13T00:41:20.130Z,72.2
2018-08-13T00:42:21.533Z,72.3
2018-08-13T00:43:23.014Z,72.6
2018-08-13T00:44:24.412Z,72.8
2018-08-13T00:45:25.898Z,72.9
2018-08-13T00:46:27.296Z,72.8
2018-08-13T00:47:28.697Z,72.9
2018-08-13T00:48:30.114Z,72.1
2018-08-13T00:49:31.517Z,72.0
2018-08-13T00:50:32.918Z,72.1
2018-08-13T00:51:34.333Z,71.8
2018-08-13T00:52:35.733Z,72.5
2018-08-13T00:53:37.132Z,71.9
2018-08-13T00:54:38.551Z,72.2
2018-08-13T00:55:39.953Z,72.2
2018-08-13T00:56:41.436Z,72.2
2018-08-13T00:57:42.876Z,72.3
2018-08-13T00:58:44.314Z,72.0
2018-08-13T00:59:45.713Z,72.2
2018-08-13T01:00:47.206Z,72.5
2018-08-13T01:01:48.592Z,72.1
2018-08-13T01:02:49.998Z,71.7
2018-08-13T01:03:51.416Z,72.0
2018-08-13T01:04:52.813Z,71.9
2018-08-13T01:05:54.223Z,72.0
2018-08-13T01:06:55.735Z,72.4
2018-08-13T01:12:33.844Z,73.0
2018-08-13T01:13:35.241Z,73.0
2018-08-13T01:14:36.789Z,71.8
2018-08-13T01:15:38.186Z,72.1
2018-08-13T01:16:39.626Z,72.3
2018-08-13T01:17:41.026Z,72.1
2018-08-13T01:18:42.419Z,71.7
2018-08-13T01:19:43.844Z,71.3
2018-08-13T01:20:45.241Z,71.9
2018-08-13T01:21:46.637Z,71.7
2018-08-13T01:22:48.064Z,72.7
2018-08-13T01:23:49.460Z,72.3
2018-08-13T01:24:50.945Z,72.5
2018-08-13T01:25:52.346Z,72.0
2018-08-13T01:26:53.827Z,72.9
2018-08-13T01:27:55.221Z,72.8
2018-08-13T01:28:56.705Z,72.8
2018-08-13T01:29:58.105Z,72.4
2018-08-13T01:30:59.585Z,72.5
2018-08-13T01:32:00.987Z,71.8
2018-08-13T01:33:02.470Z,72.9
2018-08-13T01:34:03.868Z,72.7
2018-08-13T01:35:05.350Z,71.8
2018-08-13T01:36:06.743Z,72.6
2018-08-13T01:37:08.229Z,72.9
2018-08-13T01:38:09.635Z,71.9
2018-08-13T01:39:11.113Z,72.2
2018-08-13T01:40:12.512Z,72.2
2018-08-13T01:41:13.998Z,71.8
2018-08-13T01:42:15.386Z,72.2
2018-08-13T01:43:16.875Z,72.4
2018-08-13T01:44:18.271Z,72.1
2018-08-13T01:45:19.670Z,71.8
2018-08-13T01:46:21.093Z,71.7
2018-08-13T01:47:22.493Z,72.1
2018-08-13T01:48:23.886Z,72.3
2018-08-13T01:49:25.330Z,72.0
2018-08-13T01:50:26.710Z,71.9
2018-08-13T01:51:28.192Z,71.9
2018-08-13T01:52:29.593Z,72.1
2018-08-13T01:53:30.992Z,72.3
2018-08-13T01:54:32.410Z,72.2
2018-08-13T01:55:33.813Z,72.2
2018-08-13T01:56:35.212Z,72.4
2018-08-13T01:57:36.640Z,72.5
2018-08-13T01:58:38.029Z,71.8
2018-08-13T01:59:39.431Z,72.2
2018-08-13T02:00:40.847Z,72.5
2018-08-13T02:01:42.262Z,72.9
2018-08-13T02:02:43.657Z,72.7
2018-08-13T02:03:45.064Z,73.7
2018-08-13T02:04:46.465Z,72.9
2018-08-13T02:05:47.948Z,72.9
2018-08-13T02:06:49.349Z,73.0
2018-08-13T02:07:50.826Z,72.9
2018-08-13T02:08:52.226Z,72.8
2018-08-13T02:09:53.632Z,73.1
2018-08-13T02:10:55.046Z,73.0
2018-08-13T02:11:56.445Z,73.7
2018-08-13T02:12:57.848Z,73.3
2018-08-13T02:13:59.266Z,73.5
2018-08-13T02:15:00.668Z,73.6
2018-08-13T02:16:02.071Z,73.6
2018-08-13T02:17:03.587Z,73.2
2018-08-13T02:18:04.986Z,73.4
2018-08-13T02:19:06.384Z,73.2
2018-08-13T02:20:07.803Z,73.8
2018-08-13T02:21:09.206Z,73.6
2018-08-13T02:22:10.687Z,74.3
2018-08-13T02:23:12.096Z,74.4
2018-08-13T02:24:13.567Z,74.5
2018-08-13T02:25:14.965Z,74.2
2018-08-13T02:26:16.447Z,74.2
2018-08-13T02:27:17.848Z,74.0
2018-08-13T02:28:19.330Z,74.4
2018-08-13T02:29:20.738Z,74.9
2018-08-13T02:30:24.735Z,74.9
2018-08-13T02:31:26.133Z,74.6
2018-08-13T02:32:27.553Z,75.0
2018-08-13T02:33:28.954Z,74.6
2018-08-13T02:34:30.657Z,74.1
2018-08-13T02:35:32.078Z,74.5
2018-08-13T02:36:33.475Z,74.2
2018-08-13T02:37:34.876Z,74.1
2018-08-13T02:38:36.294Z,74.3
2018-08-13T02:39:37.691Z,74.2
2018-08-13T02:40:39.176Z,74.2
2018-08-13T02:41:40.577Z,74.8
2018-08-13T02:42:42.056Z,74.8
2018-08-13T02:43:43.459Z,75.3
2018-08-13T02:44:44.859Z,75.3
2018-08-13T02:45:46.379Z,75.1
2018-08-13T02:46:47.773Z,75.6
2018-08-13T02:47:49.171Z,75.5
2018-08-13T02:48:50.601Z,75.3
2018-08-13T02:49:51.997Z,75.3
2018-08-13T02:50:53.396Z,75.7
2018-08-13T02:51:54.915Z,75.7
2018-08-13T02:52:56.317Z,75.4
2018-08-13T02:53:57.713Z,74.8
2018-08-13T02:54:59.135Z,74.9
2018-08-13T02:56:00.548Z,74.9
2018-08-13T02:57:02.029Z,74.9
2018-08-13T02:58:03.444Z,74.0
2018-08-13T02:59:04.812Z,74.2
2018-08-13T03:00:06.434Z,74.6
2018-08-13T03:01:07.589Z,74.8
2018-08-13T03:02:08.975Z,75.2
2018-08-13T03:03:10.454Z,75.2
2018-08-13T03:04:11.859Z,75.2
2018-08-13T03:05:13.254Z,75.3
2018-08-13T03:06:14.780Z,75.5
2018-08-13T03:07:16.179Z,75.4
2018-08-13T03:08:17.575Z,75.3
2018-08-13T03:09:18.995Z,74.8
2018-08-13T03:10:20.393Z,75.1
2018-08-13T03:11:21.871Z,75.5
2018-08-13T03:12:23.274Z,75.3
2018-08-13T03:13:24.763Z,75.2
2018-08-13T03:14:26.178Z,75.2
2018-08-13T03:15:27.555Z,75.9
2018-08-13T03:16:28.997Z,75.7
2018-08-13T03:17:30.407Z,75.8
2018-08-13T03:18:31.801Z,75.8
2018-08-13T03:19:33.351Z,75.7
2018-08-13T03:20:34.747Z,75.1
2018-08-13T03:21:36.174Z,75.2
2018-08-13T03:22:37.574Z,75.1
2018-08-13T03:23:39.054Z,75.7
2018-08-13T03:24:40.457Z,75.5
2018-08-13T03:25:41.858Z,75.2
2018-08-13T03:26:43.273Z,75.3
2018-08-13T03:27:44.674Z,75.2
2018-08-13T03:28:46.076Z,75.6
2018-08-13T03:29:47.491Z,75.5
2018-08-13T03:30:48.909Z,75.7
2018-08-13T03:31:50.331Z,75.4
2018-08-13T03:32:51.822Z,75.9
2018-08-13T03:33:53.222Z,75.8
2018-08-13T03:34:54.620Z,75.6
2018-08-13T03:35:56.144Z,75.9
2018-08-13T03:36:57.538Z,75.5
2018-08-13T03:37:59.025Z,76.2
2018-08-13T03:39:00.499Z,76.3
2018-08-13T03:40:02.001Z,76.2
2018-08-13T03:41:03.401Z,76.3
2018-08-13T03:42:04.880Z,76.8
2018-08-13T03:43:06.282Z,76.4
2018-08-13T03:44:07.763Z,76.5
2018-08-13T03:45:09.160Z,76.8
2018-08-13T03:46:10.643Z,76.6
2018-08-13T03:47:12.043Z,76.7
2018-08-13T03:48:13.523Z,77.0
2018-08-13T03:49:14.925Z,77.1
2018-08-13T03:50:16.327Z,77.0
2018-08-13T03:51:17.741Z,77.6
2018-08-13T03:52:19.141Z,76.8
2018-08-13T03:53:20.542Z,77.0
2018-08-13T03:54:21.963Z,77.6
2018-08-13T03:55:23.364Z,77.5
2018-08-13T03:56:24.842Z,77.6
2018-08-13T03:57:26.244Z,77.6
2018-08-13T03:58:27.722Z,77.6
2018-08-13T03:59:29.122Z,77.6
2018-08-13T04:00:30.605Z,77.7
2018-08-13T04:01:32.003Z,78.2
2018-08-13T04:02:33.484Z,78.3
2018-08-13T04:03:34.884Z,78.1
2018-08-13T04:04:36.367Z,78.0
2018-08-13T04:05:37.772Z,78.1
2018-08-13T04:06:39.167Z,78.4
2018-08-13T04:07:40.586Z,78.1
2018-08-13T04:08:41.987Z,78.4
2018-08-13T04:09:43.391Z,78.1
2018-08-13T04:10:44.908Z,78.4
2018-08-13T04:11:46.313Z,78.3
2018-08-13T04:12:47.809Z,78.2
2018-08-13T04:13:49.209Z,77.8
2018-08-13T04:14:50.609Z,78.1
2018-08-13T04:15:52.112Z,78.1
2018-08-13T04:16:53.513Z,78.0
2018-08-13T04:17:54.915Z,78.0
2018-08-13T04:18:56.531Z,78.1
2018-08-13T04:19:57.932Z,78.2
2018-08-13T04:20:59.332Z,77.8
2018-08-13T04:22:00.763Z,78.2
2018-08-13T04:23:02.163Z,78.4
2018-08-13T04:24:03.569Z,77.9
2018-08-13T04:25:05.073Z,78.2
2018-08-13T04:26:06.478Z,77.8
2018-08-13T04:27:07.879Z,78.0
2018-08-13T04:28:09.396Z,78.5
2018-08-13T04:29:10.796Z,78.3
2018-08-13T04:30:12.200Z,78.4
2018-08-13T04:31:13.717Z,78.6
2018-08-13T04:32:15.120Z,78.3
2018-08-13T04:33:16.524Z,78.2
2018-08-13T04:34:18.038Z,77.9
2018-08-13T04:35:19.439Z,78.2
2018-08-13T04:36:20.840Z,77.9
2018-08-13T04:37:22.358Z,78.1
2018-08-13T04:38:23.758Z,77.9
2018-08-13T04:39:25.241Z,78.2
2018-08-13T04:40:26.658Z,77.8
2018-08-13T04:41:28.046Z,77.9
2018-08-13T04:42:29.460Z,77.9
2018-08-13T04:43:30.860Z,78.1
2018-08-13T04:44:32.267Z,77.5
2018-08-13T04:45:33.864Z,77.9
2018-08-13T04:46:35.268Z,77.8
2018-08-13T04:47:36.879Z,78.5
2018-08-13T04:48:38.282Z,78.7
2018-08-13T04:49:39.953Z,78.9
2018-08-13T04:50:41.354Z,78.1
2018-08-13T04:51:42.886Z,77.9
2018-08-13T04:52:44.479Z,78.4
2018-08-13T04:53:45.881Z,77.8
2018-08-13T04:54:47.285Z,78.1
2018-08-13T04:55:48.797Z,78.3
2018-08-13T04:56:50.203Z,78.3
2018-08-13T04:57:51.605Z,78.6
2018-08-13T04:58:53.057Z,78.9
2018-08-13T04:59:54.421Z,79.6
2018-08-13T05:00:55.824Z,79.5
2018-08-13T05:01:57.339Z,79.2
2018-08-13T05:02:58.741Z,78.6
2018-08-13T05:04:00.141Z,78.8
2018-08-13T05:05:01.563Z,78.6
2018-08-13T05:06:02.958Z,78.5
2018-08-13T05:07:04.363Z,78.9
2018-08-13T05:08:05.881Z,78.7
2018-08-13T05:09:07.284Z,78.9
2018-08-13T05:10:08.685Z,78.8
2018-08-13T05:11:10.199Z,79.2
2018-08-13T05:12:11.604Z,79.4
2018-08-13T05:13:13.004Z,79.5
2018-08-13T05:14:14.520Z,79.6
2018-08-13T05:15:15.926Z,79.6
2018-08-13T05:16:17.327Z,79.5
2018-08-13T05:17:18.842Z,79.4
2018-08-13T05:18:20.250Z,79.7
2018-08-13T05:19:21.724Z,79.6
2018-08-13T05:20:23.128Z,78.7
2018-08-13T05:21:24.674Z,78.7
2018-08-13T05:22:26.008Z,77.9
2018-08-13T05:23:27.486Z,77.9
2018-08-13T05:24:28.887Z,77.7
2018-08-13T05:25:30.290Z,78.4
2018-08-13T05:26:31.706Z,78.1
2018-08-13T05:27:33.108Z,78.2
2018-08-13T05:28:34.513Z,79.0
2018-08-13T05:29:36.027Z,79.2
2018-08-13T05:30:37.436Z,79.8
2018-08-13T05:31:38.840Z,80.4
2018-08-13T05:32:40.352Z,81.0
2018-08-13T05:33:41.750Z,82.0
2018-08-13T05:34:43.157Z,81.6
2018-08-13T05:35:44.670Z,82.5
2018-08-13T05:36:46.078Z,82.7
2018-08-13T05:37:47.484Z,83.9
2018-08-13T05:38:48.991Z,84.1
2018-08-13T05:39:50.396Z,84.9
2018-08-13T05:40:51.801Z,85.6
2018-08-13T05:41:53.311Z,85.3
2018-08-13T05:42:54.717Z,86.0
2018-08-13T05:43:56.123Z,86.3
2018-08-13T05:44:57.633Z,86.8
2018-08-13T05:45:59.040Z,87.1
2018-08-13T05:47:00.440Z,87.1
2018-08-13T05:48:01.959Z,87.1
2018-08-13T05:49:03.362Z,87.6
2018-08-13T05:50:04.763Z,88.0
2018-08-13T05:51:06.382Z,87.6
2018-08-13T05:52:07.788Z,88.1
2018-08-13T05:53:09.463Z,88.7
2018-08-13T05:54:10.867Z,88.2
2018-08-13T05:55:12.564Z,88.0
2018-08-13T05:56:13.969Z,87.9
2018-08-13T05:57:15.369Z,88.1
2018-08-13T05:58:16.873Z,88.0
2018-08-13T05:59:18.279Z,87.6
2018-08-13T06:00:19.681Z,87.6
2018-08-13T06:01:21.193Z,87.6
2018-08-13T06:02:22.603Z,87.5
2018-08-13T06:03:24.011Z,88.3
2018-08-13T06:04:25.517Z,87.4
2018-08-13T06:05:26.920Z,87.3
2018-08-13T06:06:28.329Z,87.6
2018-08-13T06:07:29.839Z,87.3
2018-08-13T06:08:31.242Z,87.4
2018-08-13T06:09:32.648Z,87.8
2018-08-13T06:10:34.157Z,87.5
2018-08-13T06:11:35.631Z,88.3
2018-08-13T06:12:36.976Z,88.3
2018-08-13T06:13:38.490Z,88.6
2018-08-13T06:14:39.881Z,88.8
2018-08-13T06:15:41.362Z,89.1
2018-08-13T06:16:42.765Z,88.9
2018-08-13T06:17:44.241Z,89.2
2018-08-13T06:18:45.810Z,89.4
2018-08-13T06:19:47.335Z,89.7
2018-08-13T06:20:48.734Z,89.6
2018-08-13T06:21:50.210Z,89.5
2018-08-13T06:22:51.640Z,90.1
2018-08-13T06:23:53.087Z,90.3
2018-08-13T06:24:54.493Z,90.3
2018-08-13T06:25:55.969Z,90.4
2018-08-13T06:26:57.376Z,90.3
2018-08-13T06:27:58.779Z,89.8
2018-08-13T06:29:00.290Z,89.9
2018-08-13T06:30:01.746Z,89.8
2018-08-13T06:31:03.118Z,89.4
2018-08-13T06:32:04.612Z,89.7
2018-08-13T06:33:06.069Z,89.5
2018-08-13T06:34:07.434Z,89.6
2018-08-13T06:35:08.930Z,89.3
2018-08-13T06:36:10.338Z,89.3
2018-08-13T06:37:11.776Z,89.0
2018-08-13T06:38:13.284Z,89.8
2018-08-13T06:39:14.660Z,89.1
2018-08-13T06:40:16.135Z,89.2
2018-08-13T06:41:17.538Z,89.2
2018-08-13T06:42:19.015Z,88.9
2018-08-13T06:43:20.417Z,89.7
2018-08-13T06:44:21.899Z,89.4
2018-08-13T06:45:23.302Z,88.9
2018-08-13T06:46:24.781Z,89.5
2018-08-13T06:47:26.178Z,90.4
2018-08-13T06:48:27.657Z,90.4
2018-08-13T06:49:29.063Z,90.8
2018-08-13T06:50:30.539Z,91.0
2018-08-13T06:51:31.939Z,91.2
2018-08-13T06:52:33.418Z,91.7
2018-08-13T06:53:34.821Z,92.3
2018-08-13T06:54:36.299Z,92.3
2018-08-13T06:55:37.708Z,92.8
2018-08-13T06:56:39.182Z,94.3
2018-08-13T06:57:40.586Z,94.1
2018-08-13T06:58:41.996Z,94.5
2018-08-13T06:59:43.502Z,94.3
2018-08-13T07:00:44.918Z,94.7
2018-08-13T07:01:46.314Z,95.4
2018-08-13T07:02:47.825Z,96.2
2018-08-13T07:03:49.231Z,96.4
2018-08-13T07:04:50.705Z,96.4
2018-08-13T07:05:52.109Z,97.4
2018-08-13T07:06:53.586Z,98.2
2018-08-13T07:07:54.987Z,97.5
2018-08-13T07:08:56.394Z,96.0
2018-08-13T07:09:57.908Z,96.0
2018-08-13T07:10:59.307Z,96.3
2018-08-13T07:12:00.716Z,96.4
2018-08-13T07:13:02.227Z,96.0
2018-08-13T07:14:03.632Z,96.0
2018-08-13T07:15:05.108Z,95.9
2018-08-13T07:16:06.514Z,96.4
2018-08-13T07:17:07.991Z,96.1
2018-08-13T07:18:09.396Z,96.1
2018-08-13T07:19:10.799Z,97.0
2018-08-13T07:20:12.310Z,96.7
2018-08-13T07:21:13.716Z,96.9
2018-08-13T07:22:15.149Z,97.0
2018-08-13T07:23:16.637Z,96.8
2018-08-13T07:24:18.041Z,96.9
2018-08-13T07:25:19.511Z,97.0
2018-08-13T07:26:20.916Z,97.8
2018-08-13T07:27:22.320Z,97.3
2018-08-13T07:28:23.836Z,97.0
2018-08-13T07:29:25.237Z,96.8
2018-08-13T07:30:26.645Z,96.5
2018-08-13T07:31:28.156Z,96.5
2018-08-13T07:32:29.566Z,96.6
2018-08-13T07:33:31.037Z,96.7
2018-08-13T07:34:32.479Z,96.2
2018-08-13T07:35:33.883Z,96.4
2018-08-13T07:36:35.288Z,95.7
2018-08-13T07:37:36.803Z,95.7
2018-08-13T07:38:38.199Z,96.0
2018-08-13T07:39:39.609Z,95.5
2018-08-13T07:40:41.120Z,95.6
2018-08-13T07:41:42.520Z,95.2
2018-08-13T07:42:43.920Z,95.5
2018-08-13T07:43:45.342Z,94.6
2018-08-13T07:44:46.747Z,94.6
2018-08-13T07:45:48.222Z,94.2
2018-08-13T07:46:49.625Z,94.8
2018-08-13T07:47:51.101Z,93.9
2018-08-13T07:48:52.503Z,94.5
2018-08-13T07:49:53.985Z,94.5
2018-08-13T07:50:55.398Z,93.4
2018-08-13T07:51:56.863Z,92.4
2018-08-13T07:52:58.269Z,92.3
2018-08-13T07:53:59.742Z,92.8
2018-08-13T07:55:01.138Z,92.7
2018-08-13T07:56:02.629Z,93.1
2018-08-13T07:57:04.038Z,93.0
2018-08-13T07:58:05.445Z,92.9
2018-08-13T07:59:06.947Z,92.6
2018-08-13T08:00:08.391Z,92.0
2018-08-13T08:01:09.760Z,91.9
2018-08-13T08:02:11.268Z,91.9
2018-08-13T08:03:12.665Z,92.0
2018-08-13T08:04:14.072Z,92.3
2018-08-13T08:05:15.485Z,92.3
2018-08-13T08:06:16.892Z,92.5
2018-08-13T08:07:18.367Z,92.4
2018-08-13T08:08:19.772Z,93.0
2018-08-13T08:09:21.249Z,92.7
2018-08-13T08:10:22.649Z,92.9
2018-08-13T08:11:24.132Z,93.1
2018-08-13T08:12:25.536Z,93.1
2018-08-13T08:13:27.009Z,92.7
2018-08-13T08:14:28.413Z,93.0
2018-08-13T08:15:29.890Z,92.5
2018-08-13T08:16:31.296Z,92.6
2018-08-13T08:17:32.771Z,92.6
2018-08-13T08:18:34.175Z,92.3
2018-08-13T08:19:35.652Z,92.0
2018-08-13T08:20:37.059Z,91.8
2018-08-13T08:21:38.535Z,91.9
2018-08-13T08:22:39.948Z,91.2
2018-08-13T08:23:41.353Z,91.0
2018-08-13T08:24:42.857Z,89.6
2018-08-13T08:25:44.263Z,88.3
2018-08-13T08:26:45.699Z,88.7
2018-08-13T08:27:47.184Z,88.4
2018-08-13T08:28:48.590Z,88.5
2018-08-13T08:29:50.020Z,88.5
2018-08-13T08:30:51.498Z,88.1
2018-08-13T08:31:52.901Z,88.0
2018-08-13T08:32:54.309Z,87.0
2018-08-13T08:33:55.820Z,87.2
2018-08-13T08:34:57.225Z,86.8
2018-08-13T08:35:58.699Z,86.8
2018-08-13T08:37:00.110Z,86.2
2018-08-13T08:38:01.586Z,85.3
2018-08-13T08:39:03.038Z,85.6
2018-08-13T08:40:04.460Z,85.2
2018-08-13T08:41:05.861Z,86.2
2018-08-13T08:42:07.342Z,86.1
2018-08-13T08:43:08.751Z,86.0
2018-08-13T08:44:10.158Z,86.3
2018-08-13T08:45:11.662Z,85.6
2018-08-13T08:46:13.062Z,85.5
2018-08-13T08:47:14.469Z,85.3
2018-08-13T08:48:15.983Z,84.7
2018-08-13T08:49:17.388Z,84.7
2018-08-13T08:50:18.864Z,84.4
2018-08-13T08:51:20.266Z,84.8
2018-08-13T08:52:21.746Z,84.6
2018-08-13T08:53:23.152Z,85.3
2018-08-13T08:54:24.562Z,85.2
2018-08-13T08:55:26.071Z,85.5
2018-08-13T08:56:27.473Z,86.0
2018-08-13T08:57:28.883Z,86.0
2018-08-13T08:58:30.388Z,85.3
2018-08-13T08:59:31.792Z,85.6
2018-08-13T09:00:33.219Z,85.4
2018-08-13T09:01:34.713Z,85.3
2018-08-13T09:02:36.114Z,85.2
2018-08-13T09:03:37.531Z,85.2
2018-08-13T09:04:39.029Z,85.0
2018-08-13T09:05:40.441Z,85.8
2018-08-13T09:06:41.911Z,86.1
2018-08-13T09:07:43.314Z,85.1
2018-08-13T09:08:44.792Z,85.2
2018-08-13T09:09:46.216Z,85.3
2018-08-13T09:10:47.674Z,84.8
2018-08-13T09:11:49.076Z,85.2
2018-08-13T09:12:50.555Z,85.1
2018-08-13T09:13:51.958Z,86.1
2018-08-13T09:14:53.433Z,86.5
2018-08-13T09:15:54.841Z,86.7
2018-08-13T09:16:56.315Z,87.2
2018-08-13T09:17:57.715Z,87.7
2018-08-13T09:18:59.220Z,87.7
2018-08-13T09:20:00.616Z,87.3
2018-08-13T09:21:02.081Z,87.2
2018-08-13T09:22:03.485Z,87.9
2018-08-13T09:23:04.959Z,87.4
2018-08-13T09:24:06.362Z,87.5
2018-08-13T09:25:07.839Z,87.8
2018-08-13T09:26:09.251Z,87.2
2018-08-13T09:27:10.720Z,87.0
2018-08-13T09:28:12.123Z,86.6
2018-08-13T09:29:13.604Z,87.2
2018-08-13T09:30:15.006Z,86.7
2018-08-13T09:31:16.483Z,86.7
2018-08-13T09:32:17.892Z,86.1
2018-08-13T09:33:19.364Z,86.4
2018-08-13T09:34:20.767Z,85.9
2018-08-13T09:35:22.169Z,86.1
2018-08-13T09:36:23.688Z,86.1
2018-08-13T09:37:25.086Z,86.1
2018-08-13T09:38:26.488Z,85.4
2018-08-13T09:39:28.005Z,85.3
2018-08-13T09:40:29.413Z,85.6
2018-08-13T09:41:34.012Z,84.3
2018-08-13T09:42:35.804Z,83.6
2018-08-13T09:43:37.252Z,83.1
2018-08-13T09:44:38.659Z,82.9
2018-08-13T09:45:40.067Z,83.0
2018-08-13T09:46:41.571Z,82.5
2018-08-13T09:47:42.977Z,81.9
2018-08-13T09:48:44.419Z,80.7
2018-08-13T09:49:45.893Z,80.5
2018-08-13T09:50:47.292Z,80.5
2018-08-13T09:51:48.775Z,80.1
2018-08-13T09:52:50.179Z,79.9
2018-08-13T09:53:51.784Z,80.0
2018-08-13T09:54:53.063Z,78.9
2018-08-13T09:55:54.535Z,78.9
2018-08-13T09:56:55.936Z,78.3
2018-08-13T09:57:57.414Z,77.7
2018-08-13T09:58:58.856Z,76.5
2018-08-13T10:00:00.299Z,75.6
2018-08-13T10:01:01.704Z,74.3
2018-08-13T10:02:03.183Z,73.4
2018-08-13T10:03:04.583Z,71.8
2018-08-13T10:04:06.061Z,72.9
2018-08-13T10:05:07.461Z,72.0
2018-08-13T10:06:08.864Z,72.3
2018-08-13T10:07:10.392Z,72.3
2018-08-13T10:08:11.792Z,72.5
2018-08-13T10:09:13.251Z,72.3
2018-08-13T10:10:14.700Z,71.7
2018-08-13T10:11:16.108Z,71.1
2018-08-13T10:12:17.513Z,71.5
2018-08-13T10:13:19.022Z,72.5
2018-08-13T10:14:20.427Z,71.7
2018-08-13T10:15:21.835Z,71.7
2018-08-13T10:16:23.367Z,71.1
2018-08-13T10:17:24.781Z,71.4
2018-08-13T10:18:26.228Z,71.7
2018-08-13T10:19:27.627Z,71.9
2018-08-13T10:20:29.114Z,71.4
2018-08-13T10:21:30.520Z,72.2
2018-08-13T10:22:31.988Z,72.2
2018-08-13T10:23:33.394Z,72.0
2018-08-13T10:24:34.881Z,71.9
2018-08-13T10:25:36.284Z,71.7
2018-08-13T10:26:37.706Z,71.4
2018-08-13T10:27:39.192Z,70.9
2018-08-13T10:28:40.597Z,71.7
2018-08-13T10:29:42.053Z,71.4
2018-08-13T10:30:43.509Z,72.0
2018-08-13T10:31:44.917Z,71.3
2018-08-13T10:32:46.326Z,72.4
2018-08-13T10:33:47.842Z,73.2
2018-08-13T10:34:49.235Z,73.7
2018-08-13T10:35:50.641Z,74.5
2018-08-13T10:36:52.162Z,75.1
2018-08-13T10:37:53.578Z,75.6
2018-08-13T10:38:55.030Z,75.9
2018-08-13T10:39:56.436Z,76.2
2018-08-13T10:40:57.841Z,76.6
2018-08-13T10:41:59.354Z,77.3
2018-08-13T10:43:00.764Z,77.4
2018-08-13T10:44:02.171Z,78.2
2018-08-13T10:45:03.676Z,79.9
2018-08-13T10:46:05.083Z,81.1
2018-08-13T10:47:06.496Z,81.5
2018-08-13T10:48:07.996Z,81.8
2018-08-13T10:49:09.407Z,81.0
2018-08-13T10:50:10.814Z,79.0
2018-08-13T10:51:12.319Z,78.7
2018-08-13T10:52:13.733Z,77.6
2018-08-13T10:53:15.198Z,77.9
2018-08-13T10:54:16.603Z,77.8
2018-08-13T10:55:18.017Z,78.1
2018-08-13T10:56:19.521Z,78.5
2018-08-13T10:57:20.953Z,78.2
2018-08-13T10:58:22.362Z,78.1
2018-08-13T10:59:24.869Z,78.2
2018-08-13T11:00:26.272Z,77.3
2018-08-13T11:01:27.680Z,77.4
2018-08-13T11:02:29.185Z,78.2
2018-08-13T11:03:30.592Z,77.6
2018-08-13T11:04:32.007Z,76.4
2018-08-13T11:05:33.508Z,75.8
2018-08-13T11:06:34.921Z,74.9
2018-08-13T11:07:36.387Z,73.8
2018-08-13T11:08:37.795Z,73.7
2018-08-13T11:09:39.272Z,73.1
2018-08-13T11:10:40.678Z,72.0
2018-08-13T11:11:42.155Z,71.2
2018-08-13T11:12:43.567Z,71.1
2018-08-13T11:13:45.030Z,70.3
2018-08-13T11:14:46.445Z,70.5
2018-08-13T11:15:47.875Z,70.3
2018-08-13T11:16:49.353Z,69.9
2018-08-13T11:17:50.765Z,69.5
2018-08-13T11:18:52.185Z,68.2
2018-08-13T11:19:53.672Z,68.6
2018-08-13T11:20:55.085Z,69.0
2018-08-13T11:21:56.555Z,68.1
2018-08-13T11:22:57.961Z,68.3
2018-08-13T11:23:59.433Z,69.0
2018-08-13T11:25:00.840Z,68.3
2018-08-13T11:26:02.256Z,68.6
2018-08-13T11:27:03.755Z,69.5
2018-08-13T11:28:05.160Z,69.1
2018-08-13T11:29:06.690Z,68.5
2018-08-13T11:30:08.281Z,68.8
2018-08-13T11:31:09.732Z,69.9
2018-08-13T11:32:11.092Z,70.5
2018-08-13T11:33:12.602Z,71.2
2018-08-13T11:34:14.006Z,70.9
2018-08-13T11:35:15.417Z,71.2
2018-08-13T11:36:16.924Z,71.1
2018-08-13T11:37:18.326Z,71.3
2018-08-13T11:38:19.733Z,71.2
2018-08-13T11:39:21.247Z,71.1
2018-08-13T11:40:22.653Z,71.1
2018-08-13T11:41:24.060Z,71.4
2018-08-13T11:42:25.566Z,72.0
2018-08-13T11:43:26.972Z,72.2
2018-08-13T11:44:28.453Z,71.8
2018-08-13T11:45:29.850Z,72.0
2018-08-13T11:46:31.254Z,72.6
2018-08-13T11:47:32.768Z,73.4
2018-08-13T11:48:34.173Z,73.2
2018-08-13T11:49:35.576Z,72.5
2018-08-13T11:50:37.089Z,72.2
2018-08-13T11:51:38.497Z,72.2
2018-08-13T11:52:39.896Z,72.3
2018-08-13T11:53:41.416Z,71.9
2018-08-13T11:54:42.816Z,71.2
2018-08-13T11:55:44.225Z,70.6
2018-08-13T11:56:45.734Z,70.3
2018-08-13T11:57:47.146Z,69.8
2018-08-13T11:58:48.755Z,70.0
2018-08-13T11:59:50.157Z,69.7
2018-08-13T12:00:51.703Z,69.2
2018-08-13T12:01:53.135Z,69.4
2018-08-13T12:02:54.516Z,68.9
2018-08-13T12:03:56.020Z,69.4
2018-08-13T12:04:57.429Z,69.6
2018-08-13T12:05:58.833Z,69.7
2018-08-13T12:07:00.347Z,68.6
2018-08-13T12:08:01.750Z,68.2
2018-08-13T12:09:03.225Z,68.7
2018-08-13T12:10:04.631Z,66.9
2018-08-13T12:11:06.042Z,67.1
2018-08-13T12:12:07.554Z,66.9
2018-08-13T12:13:08.954Z,68.5
2018-08-13T12:14:10.425Z,67.6
2018-08-13T12:15:11.867Z,67.2
2018-08-13T12:16:13.274Z,66.5
2018-08-13T12:17:14.685Z,66.9
2018-08-13T12:18:16.187Z,67.4
2018-08-13T12:19:17.597Z,67.7
2018-08-13T12:20:19.012Z,67.2
2018-08-13T12:21:20.510Z,66.3
2018-08-13T12:22:21.913Z,66.7
2018-08-13T12:23:23.391Z,65.9
2018-08-13T12:24:24.802Z,65.8
2018-08-13T12:25:26.273Z,65.6
2018-08-13T12:26:27.708Z,64.7
2018-08-13T12:27:29.157Z,64.6
2018-08-13T12:28:30.564Z,64.7
2018-08-13T12:29:32.047Z,64.9
2018-08-13T12:30:33.458Z,65.5
2018-08-13T12:31:34.864Z,65.9
2018-08-13T12:32:36.355Z,65.8
2018-08-13T12:33:37.764Z,66.6
2018-08-13T12:34:39.165Z,67.1
2018-08-13T12:35:40.680Z,66.4
2018-08-13T12:36:42.083Z,66.1
2018-08-13T12:37:43.488Z,66.5
2018-08-13T12:38:44.993Z,67.5
2018-08-13T12:39:46.407Z,68.1
2018-08-13T12:40:47.879Z,68.8
2018-08-13T12:41:49.299Z,68.4
2018-08-13T12:42:50.698Z,68.6
2018-08-13T12:43:52.197Z,68.1
2018-08-13T12:44:53.601Z,68.4
2018-08-13T12:45:55.009Z,68.0
2018-08-13T12:46:56.518Z,67.5
2018-08-13T12:47:57.936Z,68.4
2018-08-13T12:48:59.332Z,68.8
2018-08-13T12:50:00.843Z,68.6
2018-08-13T12:51:02.285Z,68.8
2018-08-13T12:52:03.653Z,69.0
2018-08-13T12:53:05.162Z,69.2
2018-08-13T12:54:06.575Z,69.7
2018-08-13T12:55:08.045Z,69.9
2018-08-13T12:56:09.451Z,70.6
2018-08-13T12:57:10.958Z,70.5
2018-08-13T12:58:12.366Z,70.6
2018-08-13T12:59:13.771Z,70.9
2018-08-13T13:00:15.175Z,70.9
2018-08-13T13:01:16.685Z,70.9
2018-08-13T13:02:18.095Z,71.2
2018-08-13T13:03:19.570Z,71.4
2018-08-13T13:04:20.971Z,71.4
2018-08-13T13:05:22.450Z,70.8
2018-08-13T13:06:23.858Z,71.2
2018-08-13T13:07:25.329Z,71.8
2018-08-13T13:08:26.734Z,72.0
2018-08-13T13:09:28.210Z,72.8
2018-08-13T13:10:29.623Z,72.3
2018-08-13T13:11:31.115Z,73.2
2018-08-13T13:12:32.516Z,73.3
2018-08-13T13:13:33.920Z,73.3
2018-08-13T13:14:35.413Z,73.7
2018-08-13T13:15:36.823Z,73.9
2018-08-13T13:16:38.224Z,74.0
2018-08-13T13:17:39.736Z,74.9
2018-08-13T13:18:41.135Z,74.1
2018-08-13T13:19:42.547Z,74.0
2018-08-13T13:20:44.055Z,74.7
2018-08-13T13:21:45.457Z,74.4
2018-08-13T13:22:46.866Z,75.0
2018-08-13T13:23:48.374Z,75.4
2018-08-13T13:24:49.779Z,76.1
2018-08-13T13:25:51.189Z,76.3
2018-08-13T13:26:52.695Z,77.3
2018-08-13T13:27:54.101Z,78.2
2018-08-13T13:28:55.509Z,78.4
2018-08-13T13:29:57.018Z,79.9
2018-08-13T13:30:58.428Z,81.3
2018-08-13T13:31:59.827Z,81.8
2018-08-13T13:33:01.339Z,83.0
2018-08-13T13:34:02.745Z,82.3
2018-08-13T13:35:04.145Z,83.5
2018-08-13T13:36:05.663Z,83.6
2018-08-13T13:37:07.071Z,83.8
2018-08-13T13:38:08.473Z,84.4
2018-08-13T13:39:09.986Z,84.2
2018-08-13T13:40:11.399Z,84.6
2018-08-13T13:41:12.786Z,85.0
2018-08-13T13:42:14.306Z,84.4